Time;durP1;ratioP1;P1;durP2;ratioP2;P2;SDS_P1;SDS_P2;PMS_P1;PMS_P2;Temp;Humidity;BMP_temperature;BMP_pressure;BME280_temperature;BME280_humidity;BME280_pressure;Samples;Min_cycle;Max_cycle;Signal;HPM_P1;HPM_P2
2021/08/24 00:01:42;;;;;;;1.20;0.73;;;9.40;99.90;;;;;;4945739;28;20180;-65
2021/08/24 00:04:10;;;;;;;0.60;0.60;;;9.30;99.90;;;;;;4952411;28;20276;-72
2021/08/24 00:06:38;;;;;;;3.67;0.90;;;9.40;99.90;;;;;;4939965;28;20619;-67
2021/08/24 00:09:06;;;;;;;1.40;0.80;;;9.40;99.90;;;;;;4940408;28;20260;-69
2021/08/24 00:11:34;;;;;;;0.93;0.60;;;9.40;99.90;;;;;;4944615;28;20227;-67
2021/08/24 00:14:09;;;;;;;1.20;1.03;;;9.40;99.90;;;;;;4944594;28;20191;-70
2021/08/24 00:16:41;;;;;;;0.50;0.50;;;9.40;99.90;;;;;;4941710;28;20227;-67
2021/08/24 00:19:10;;;;;;;0.80;0.70;;;9.40;99.90;;;;;;4943712;28;20639;-65
2021/08/24 00:21:39;;;;;;;0.97;0.70;;;9.40;99.90;;;;;;4953272;28;20231;-62
2021/08/24 00:24:10;;;;;;;2.40;0.80;;;9.40;99.90;;;;;;4951127;28;20197;-67
2021/08/24 00:26:37;;;;;;;1.63;0.87;;;9.30;99.90;;;;;;4949330;29;20671;-68
2021/08/24 00:29:05;;;;;;;0.73;0.73;;;9.40;99.90;;;;;;4943595;28;20199;-67
2021/08/24 00:31:33;;;;;;;3.20;1.10;;;9.40;99.90;;;;;;4944904;28;20188;-72
2021/08/24 00:34:00;;;;;;;3.43;0.80;;;9.30;99.90;;;;;;4937882;29;20639;-71
2021/08/24 00:36:28;;;;;;;2.37;0.60;;;9.30;99.90;;;;;;4934752;29;20237;-68
2021/08/24 00:38:55;;;;;;;3.53;0.90;;;9.30;99.90;;;;;;4944146;28;20331;-66
2021/08/24 00:41:25;;;;;;;1.93;0.70;;;9.30;99.90;;;;;;4946711;28;20193;-70
2021/08/24 00:43:52;;;;;;;1.27;0.77;;;9.30;99.90;;;;;;4943315;28;20200;-62
2021/08/24 00:46:38;;;;;;;0.70;0.60;;;9.30;99.90;;;;;;4952068;28;20184;-63
2021/08/24 00:49:27;;;;;;;0.73;0.60;;;9.30;99.90;;;;;;4949637;28;20284;-61
2021/08/24 00:52:11;;;;;;;1.60;0.70;;;9.40;99.90;;;;;;4943894;28;20685;-65
2021/08/24 00:54:41;;;;;;;1.93;0.73;;;9.40;99.90;;;;;;4945596;28;20278;-63
2021/08/24 00:57:23;;;;;;;2.83;0.73;;;9.40;99.90;;;;;;4935545;29;20747;-66
2021/08/24 00:59:51;;;;;;;1.60;0.70;;;9.30;99.90;;;;;;4936393;28;20189;-64
2021/08/24 01:02:21;;;;;;;1.50;1.07;;;9.30;99.90;;;;;;4948201;28;20178;-63
2021/08/24 01:04:51;;;;;;;2.00;0.90;;;9.40;99.90;;;;;;4941882;28;20184;-68
2021/08/24 01:07:21;;;;;;;0.80;0.77;;;9.40;99.90;;;;;;4955168;29;20184;-64
2021/08/24 01:10:18;;;;;;;1.27;1.00;;;9.30;99.90;;;;;;4940570;28;21059;-63
2021/08/24 01:13:17;;;;;;;3.53;1.10;;;9.30;99.90;;;;;;4954544;28;20185;-65
2021/08/24 01:16:00;;;;;;;1.40;1.00;;;9.30;99.90;;;;;;4938762;29;20183;-65
2021/08/24 01:18:38;;;;;;;1.40;0.70;;;9.40;99.90;;;;;;4945355;28;20228;-67
2021/08/24 01:21:43;;;;;;;0.93;0.70;;;9.40;99.90;;;;;;4939320;28;20192;-67
2021/08/24 01:24:26;;;;;;;7.37;1.30;;;9.50;99.90;;;;;;4940336;28;20190;-60
2021/08/24 01:27:03;;;;;;;3.80;1.10;;;9.50;99.90;;;;;;4939610;28;20673;-64
2021/08/24 01:29:54;;;;;;;1.97;0.80;;;9.60;99.90;;;;;;4950868;28;20235;-61
2021/08/24 01:32:53;;;;;;;2.30;1.13;;;9.60;99.90;;;;;;4947873;28;20184;-61
2021/08/24 01:35:57;;;;;;;2.23;0.90;;;9.70;99.90;;;;;;4949485;28;20192;-65
2021/08/24 01:38:33;;;;;;;1.60;1.27;;;9.70;99.90;;;;;;4945951;28;20330;-69
2021/08/24 01:41:46;;;;;;;1.00;0.90;;;9.90;99.90;;;;;;4952376;28;20258;-69
2021/08/24 01:44:19;;;;;;;2.67;1.10;;;9.80;99.90;;;;;;4942320;28;20225;-69
2021/08/24 01:47:08;;;;;;;1.63;0.90;;;9.70;99.90;;;;;;4950134;28;20195;-68
2021/08/24 01:49:47;;;;;;;1.60;0.93;;;9.80;99.90;;;;;;4950526;28;20221;-70
2021/08/24 01:52:30;;;;;;;0.93;0.73;;;9.80;99.90;;;;;;4950594;28;20319;-71
2021/08/24 01:55:03;;;;;;;1.17;1.00;;;9.70;99.90;;;;;;4946499;28;20190;-70
2021/08/24 01:57:44;;;;;;;0.63;0.60;;;9.80;99.90;;;;;;4951280;28;20266;-72
2021/08/24 02:00:13;;;;;;;1.07;0.70;;;9.70;99.90;;;;;;4949917;28;20197;-68
2021/08/24 02:03:00;;;;;;;1.77;0.77;;;9.70;99.90;;;;;;4945589;28;20192;-64
2021/08/24 02:05:58;;;;;;;1.47;0.90;;;9.80;99.90;;;;;;4950262;28;20180;-68
2021/08/24 02:08:31;;;;;;;1.13;0.60;;;9.80;99.90;;;;;;4948717;28;20198;-72
2021/08/24 02:11:01;;;;;;;1.00;0.70;;;9.90;99.90;;;;;;4948485;28;20606;-66
2021/08/24 02:13:34;;;;;;;0.63;0.60;;;9.90;99.90;;;;;;4951165;29;20201;-62
2021/08/24 02:16:05;;;;;;;2.00;0.77;;;9.90;99.90;;;;;;4949814;28;20307;-62
2021/08/24 02:18:37;;;;;;;4.63;0.80;;;10.00;99.90;;;;;;4958575;28;20240;-64
2021/08/24 02:21:11;;;;;;;1.70;0.70;;;10.00;99.90;;;;;;4947131;28;20210;-69
2021/08/24 02:23:40;;;;;;;1.27;0.70;;;10.00;99.90;;;;;;4949473;28;20197;-69
2021/08/24 02:26:10;;;;;;;2.70;0.70;;;10.00;99.90;;;;;;4951643;28;20671;-68
2021/08/24 02:28:41;;;;;;;1.60;0.70;;;10.00;99.90;;;;;;4949998;28;20200;-69
2021/08/24 02:31:37;;;;;;;0.90;0.73;;;10.10;99.90;;;;;;4951433;28;20268;-69
2021/08/24 02:34:22;;;;;;;2.53;0.80;;;10.10;99.90;;;;;;4933734;28;20265;-69
2021/08/24 02:37:17;;;;;;;1.77;0.70;;;10.20;99.90;;;;;;4952746;28;20664;-67
2021/08/24 02:40:08;;;;;;;1.50;0.70;;;10.10;99.90;;;;;;4944105;28;20269;-63
2021/08/24 02:42:35;;;;;;;0.90;0.70;;;10.20;99.90;;;;;;4944859;28;20261;-61
2021/08/24 02:45:09;;;;;;;0.90;0.67;;;10.20;99.90;;;;;;4947313;28;20251;-67
2021/08/24 02:47:39;;;;;;;2.03;0.70;;;10.20;99.90;;;;;;4952369;28;20188;-68
2021/08/24 02:50:09;;;;;;;1.93;0.90;;;10.30;99.90;;;;;;4953886;28;20644;-69
2021/08/24 02:52:38;;;;;;;2.97;0.77;;;10.30;99.90;;;;;;4950942;28;20605;-68
2021/08/24 02:55:08;;;;;;;6.40;0.93;;;10.30;99.90;;;;;;4948376;28;20693;-70
2021/08/24 02:57:36;;;;;;;1.47;0.90;;;10.20;99.90;;;;;;4945963;28;20224;-71
2021/08/24 03:00:06;;;;;;;1.80;1.00;;;10.30;99.90;;;;;;4951580;28;20181;-69
2021/08/24 03:02:33;;;;;;;1.87;1.00;;;10.30;99.90;;;;;;4953019;28;20184;-70
2021/08/24 03:05:23;;;;;;;2.13;1.00;;;10.20;99.90;;;;;;4953449;28;20208;-68
2021/08/24 03:07:50;;;;;;;4.07;1.13;;;10.30;99.90;;;;;;4947876;28;20185;-70
2021/08/24 03:10:25;;;;;;;2.00;1.10;;;10.30;99.90;;;;;;4952121;28;20613;-66
2021/08/24 03:13:26;;;;;;;2.40;0.90;;;10.40;99.90;;;;;;4949920;28;20593;-68
2021/08/24 03:16:08;;;;;;;1.00;0.90;;;10.40;99.90;;;;;;4903148;28;20219;-67
2021/08/24 03:19:00;;;;;;;2.50;1.10;;;10.40;99.90;;;;;;4938228;28;20226;-66
2021/08/24 03:21:38;;;;;;;2.57;1.00;;;10.40;99.90;;;;;;4932015;29;20209;-61
2021/08/24 03:24:13;;;;;;;1.90;1.27;;;10.40;99.90;;;;;;4954072;28;20205;-70
2021/08/24 03:26:43;;;;;;;3.90;1.60;;;10.40;99.90;;;;;;4948340;28;20192;-66
2021/08/24 03:29:24;;;;;;;2.87;1.00;;;10.40;99.90;;;;;;4954831;28;20665;-63
2021/08/24 03:38:59;;;;;;;4.30;1.00;;;10.50;99.90;;;;;;4351985;29;22468;-62
2021/08/24 03:41:27;;;;;;;1.07;0.73;;;10.50;99.90;;;;;;4882657;29;20312;-63
2021/08/24 03:43:56;;;;;;;2.20;0.87;;;10.50;99.90;;;;;;4884665;29;20187;-61
2021/08/24 03:46:23;;;;;;;3.47;0.90;;;10.50;99.90;;;;;;4912306;29;20280;-67
2021/08/24 03:48:50;;;;;;;0.90;0.70;;;10.50;99.90;;;;;;4933094;29;20195;-62
2021/08/24 03:51:18;;;;;;;2.57;0.87;;;10.50;99.90;;;;;;4933763;29;20341;-61
2021/08/24 03:53:45;;;;;;;1.77;0.97;;;10.50;99.90;;;;;;4916863;29;20197;-61
2021/08/24 03:56:12;;;;;;;2.60;1.07;;;10.50;99.90;;;;;;4934333;29;20658;-61
2021/08/24 03:58:40;;;;;;;2.70;1.93;;;10.50;99.90;;;;;;4934346;29;20216;-60
2021/08/24 04:01:13;;;;;;;3.43;1.40;;;10.50;99.90;;;;;;4934593;29;20189;-60
2021/08/24 04:03:41;;;;;;;2.20;1.20;;;10.50;99.90;;;;;;4934641;29;20199;-62
2021/08/24 04:06:09;;;;;;;2.30;1.07;;;10.50;99.90;;;;;;4934114;29;20236;-61
2021/08/24 04:08:37;;;;;;;1.67;0.90;;;10.50;99.90;;;;;;4931565;29;20186;-61
2021/08/24 04:14:26;;;;;;;4.60;1.20;;;10.50;99.90;;;;;;4929667;29;20216;-64
2021/08/24 04:17:31;;;;;;;2.20;1.10;;;10.50;99.90;;;;;;4937810;29;20241;-62
2021/08/24 04:19:58;;;;;;;2.53;0.80;;;10.40;99.90;;;;;;4934992;29;20217;-61
2021/08/24 04:22:25;;;;;;;1.17;0.90;;;10.40;99.90;;;;;;4941623;29;20218;-64
2021/08/24 04:25:16;;;;;;;3.40;1.07;;;10.40;99.90;;;;;;4934711;29;20216;-63
2021/08/24 04:27:53;;;;;;;2.23;0.93;;;10.40;99.90;;;;;;4934705;29;20188;-63
2021/08/24 04:30:30;;;;;;;1.37;1.00;;;10.30;99.90;;;;;;4934262;29;20199;-61
2021/08/24 04:32:57;;;;;;;2.27;0.87;;;10.30;99.90;;;;;;4948627;29;20201;-61
2021/08/24 04:35:25;;;;;;;1.57;0.83;;;10.30;99.90;;;;;;4938736;29;20185;-67
2021/08/24 04:37:52;;;;;;;1.20;0.80;;;10.20;99.90;;;;;;4941082;29;20619;-66
2021/08/24 04:40:21;;;;;;;2.63;0.90;;;10.10;99.90;;;;;;4965819;28;20233;-64
2021/08/24 04:46:10;;;;;;;1.23;0.87;;;10.00;99.90;;;;;;4955405;28;20236;-66
2021/08/24 04:48:37;;;;;;;2.40;0.70;;;10.00;99.90;;;;;;4958047;28;20557;-63
2021/08/24 04:51:05;;;;;;;0.83;0.70;;;9.90;99.90;;;;;;4960452;28;20184;-65
2021/08/24 04:53:32;;;;;;;1.20;0.70;;;9.90;99.90;;;;;;4953282;28;20657;-68
2021/08/24 04:55:59;;;;;;;1.90;1.23;;;9.90;99.90;;;;;;4968389;28;20275;-71
2021/08/24 04:58:27;;;;;;;0.73;0.63;;;9.90;99.90;;;;;;4970225;28;20265;-64
2021/08/24 05:00:54;;;;;;;2.43;0.70;;;9.80;99.90;;;;;;4951045;28;20187;-63
2021/08/24 05:03:21;;;;;;;2.03;0.77;;;9.90;99.90;;;;;;4954802;28;20187;-62
2021/08/24 05:05:50;;;;;;;1.77;0.60;;;9.80;99.90;;;;;;4949059;28;20564;-66
2021/08/24 05:08:17;;;;;;;1.00;0.70;;;9.80;99.90;;;;;;4950544;28;20193;-61
2021/08/24 05:10:44;;;;;;;0.80;0.70;;;9.80;99.90;;;;;;4955403;28;20636;-61
2021/08/24 05:13:11;;;;;;;4.03;0.73;;;9.80;99.90;;;;;;4948579;28;20177;-64
2021/08/24 05:15:39;;;;;;;3.03;0.70;;;9.80;99.90;;;;;;4944918;29;20215;-63
2021/08/24 05:18:06;;;;;;;2.43;1.03;;;9.80;99.90;;;;;;4945115;28;20314;-65
2021/08/24 05:20:34;;;;;;;3.73;1.83;;;9.70;99.90;;;;;;4957217;29;20176;-63
2021/08/24 05:23:01;;;;;;;3.30;1.03;;;9.70;99.90;;;;;;4955365;28;20214;-63
2021/08/24 05:25:29;;;;;;;5.23;2.07;;;9.70;99.90;;;;;;4952765;28;20196;-64
2021/08/24 05:27:56;;;;;;;0.70;0.60;;;9.70;99.90;;;;;;4950247;28;20182;-64
2021/08/24 05:30:25;;;;;;;1.70;0.73;;;9.70;99.90;;;;;;4949802;28;20188;-65
2021/08/24 05:32:54;;;;;;;1.33;0.50;;;9.60;99.90;;;;;;4948165;28;20199;-68
2021/08/24 05:35:23;;;;;;;2.90;0.67;;;9.60;99.90;;;;;;4949485;29;20655;-65
2021/08/24 05:37:50;;;;;;;1.43;0.60;;;9.60;99.90;;;;;;4956639;28;20294;-66
2021/08/24 05:40:18;;;;;;;0.87;0.57;;;9.60;99.90;;;;;;4955686;28;20587;-70
2021/08/24 05:42:46;;;;;;;1.47;0.70;;;9.50;99.90;;;;;;4956045;28;20181;-67
2021/08/24 05:45:13;;;;;;;0.90;0.60;;;9.50;99.90;;;;;;4956686;28;20186;-71
2021/08/24 05:47:41;;;;;;;0.60;0.50;;;9.40;99.90;;;;;;4955987;28;20275;-62
2021/08/24 05:50:10;;;;;;;0.60;0.60;;;9.40;99.90;;;;;;4956863;28;20176;-71
2021/08/24 05:52:37;;;;;;;0.73;0.50;;;9.30;99.90;;;;;;4956127;28;20625;-67
2021/08/24 05:55:05;;;;;;;1.33;0.50;;;9.30;99.90;;;;;;4956483;28;20173;-72
2021/08/24 05:57:32;;;;;;;1.33;0.63;;;9.20;99.90;;;;;;4952667;28;20468;-69
2021/08/24 06:00:00;;;;;;;0.97;0.70;;;9.20;99.90;;;;;;4968250;28;20663;-65
2021/08/24 06:02:27;;;;;;;0.67;0.50;;;9.20;99.90;;;;;;4975309;28;20188;-67
2021/08/24 06:04:54;;;;;;;1.50;0.73;;;9.20;99.90;;;;;;4963167;28;20187;-65
2021/08/24 06:07:22;;;;;;;1.40;0.60;;;9.10;99.90;;;;;;4956237;28;20268;-67
2021/08/24 06:09:49;;;;;;;1.00;0.60;;;9.10;99.90;;;;;;4953921;28;20196;-61
2021/08/24 06:12:17;;;;;;;3.53;1.07;;;9.10;99.90;;;;;;4947683;28;20251;-65
2021/08/24 06:14:44;;;;;;;3.07;0.50;;;9.10;99.90;;;;;;4953715;28;20561;-69
2021/08/24 06:17:12;;;;;;;2.50;0.60;;;9.00;99.90;;;;;;4955156;29;20207;-65
2021/08/24 06:19:39;;;;;;;1.90;0.70;;;9.00;99.90;;;;;;4948280;28;20564;-68
2021/08/24 06:22:06;;;;;;;0.70;0.70;;;9.00;99.90;;;;;;4954878;28;20180;-66
2021/08/24 06:24:36;;;;;;;1.10;0.50;;;9.00;99.90;;;;;;4949496;28;20197;-63
2021/08/24 06:27:04;;;;;;;1.80;0.60;;;8.90;99.90;;;;;;4952931;28;20648;-67
2021/08/24 06:29:32;;;;;;;0.80;0.50;;;8.80;99.90;;;;;;4954705;28;20631;-67
2021/08/24 06:32:04;;;;;;;0.80;0.67;;;8.80;99.90;;;;;;4955886;28;20249;-69
2021/08/24 06:34:34;;;;;;;1.17;0.70;;;8.80;99.90;;;;;;4942304;28;20196;-65
2021/08/24 06:37:02;;;;;;;0.77;0.77;;;8.70;99.90;;;;;;4952709;28;20297;-62
2021/08/24 06:39:29;;;;;;;0.57;0.57;;;8.80;99.90;;;;;;4952150;28;20243;-64
2021/08/24 06:41:57;;;;;;;0.73;0.60;;;8.70;99.90;;;;;;4954694;28;20187;-66
2021/08/24 06:44:24;;;;;;;0.90;0.60;;;8.70;99.90;;;;;;4955716;28;20184;-63
2021/08/24 06:46:51;;;;;;;1.30;0.50;;;8.70;99.90;;;;;;4955002;29;20783;-64
2021/08/24 06:49:19;;;;;;;0.63;0.60;;;8.70;99.90;;;;;;4953075;28;20278;-68
2021/08/24 06:51:46;;;;;;;1.70;0.60;;;8.70;99.90;;;;;;4947245;28;20199;-62
2021/08/24 06:54:14;;;;;;;1.07;0.70;;;8.70;99.90;;;;;;4938737;29;20183;-68
2021/08/24 06:56:41;;;;;;;1.17;0.53;;;8.70;99.90;;;;;;4955085;28;20637;-63
2021/08/24 06:59:08;;;;;;;2.20;0.50;;;8.60;99.90;;;;;;4955644;28;20710;-70
2021/08/24 07:01:36;;;;;;;0.40;0.40;;;8.70;99.90;;;;;;4955229;28;20262;-72
2021/08/24 07:04:04;;;;;;;2.37;0.57;;;8.60;99.90;;;;;;4951069;28;20195;-74
2021/08/24 07:06:31;;;;;;;0.93;0.60;;;8.60;99.90;;;;;;4953751;28;20218;-68
2021/08/24 07:08:58;;;;;;;0.77;0.50;;;8.60;99.90;;;;;;4955204;28;20552;-73
2021/08/24 07:11:27;;;;;;;0.50;0.50;;;8.60;99.90;;;;;;4953974;28;20175;-69
2021/08/24 07:13:57;;;;;;;0.60;0.60;;;8.70;99.90;;;;;;4954483;29;20184;-72
2021/08/24 07:16:29;;;;;;;1.17;0.77;;;8.70;99.90;;;;;;4948404;28;20195;-71
2021/08/24 07:18:58;;;;;;;0.53;0.43;;;8.70;99.90;;;;;;4939298;28;20194;-71
2021/08/24 07:21:27;;;;;;;1.20;0.53;;;8.70;99.90;;;;;;4950853;28;20180;-74
2021/08/24 07:23:54;;;;;;;0.50;0.50;;;8.80;99.90;;;;;;4950655;28;20186;-74
2021/08/24 07:26:22;;;;;;;0.70;0.70;;;8.80;99.90;;;;;;4954207;28;20190;-69
2021/08/24 07:28:50;;;;;;;0.57;0.50;;;8.80;99.90;;;;;;4941174;28;20287;-72
2021/08/24 07:31:18;;;;;;;1.83;0.70;;;8.80;99.90;;;;;;4954190;28;20187;-71
2021/08/24 07:33:45;;;;;;;0.87;0.60;;;8.80;99.90;;;;;;4949487;28;20600;-71
2021/08/24 07:36:13;;;;;;;0.50;0.50;;;8.90;99.90;;;;;;4948894;28;20187;-70
2021/08/24 07:38:41;;;;;;;0.50;0.50;;;8.90;99.90;;;;;;4939754;28;20232;-72
2021/08/24 07:41:09;;;;;;;0.50;0.50;;;9.00;99.90;;;;;;4942590;28;20225;-71
2021/08/24 07:43:38;;;;;;;1.20;0.90;;;9.00;99.90;;;;;;4940311;28;20200;-67
2021/08/24 07:46:05;;;;;;;0.80;0.50;;;9.00;99.90;;;;;;4947268;28;20215;-66
2021/08/24 07:48:34;;;;;;;0.60;0.60;;;9.10;99.90;;;;;;4945691;28;20268;-71
2021/08/24 07:51:01;;;;;;;0.50;0.47;;;9.10;99.90;;;;;;4950227;28;20180;-66
2021/08/24 07:53:28;;;;;;;0.60;0.40;;;9.20;99.90;;;;;;4945243;28;20548;-71
2021/08/24 07:55:57;;;;;;;1.90;0.60;;;9.10;99.90;;;;;;4945132;28;20182;-68
2021/08/24 07:58:25;;;;;;;1.37;0.77;;;9.20;99.90;;;;;;4952515;28;20219;-69
2021/08/24 08:00:52;;;;;;;0.40;0.40;;;9.30;99.90;;;;;;4955857;28;20183;-61
2021/08/24 08:03:20;;;;;;;0.80;0.67;;;9.30;99.90;;;;;;4958880;28;20194;-67
2021/08/24 08:05:47;;;;;;;0.63;0.43;;;9.30;99.90;;;;;;4951713;28;20213;-64
2021/08/24 08:08:15;;;;;;;1.13;0.63;;;9.30;99.90;;;;;;4941842;28;20184;-66
2021/08/24 08:10:42;;;;;;;1.17;0.40;;;9.30;99.90;;;;;;4942864;28;20182;-75
2021/08/24 08:13:10;;;;;;;1.00;0.77;;;9.30;99.90;;;;;;4957568;28;20528;-71
2021/08/24 08:15:38;;;;;;;0.67;0.63;;;9.30;99.90;;;;;;4951317;28;20639;-73
2021/08/24 08:18:08;;;;;;;2.20;0.97;;;9.30;99.90;;;;;;4949305;28;20208;-70
2021/08/24 08:20:37;;;;;;;0.87;0.60;;;9.30;99.90;;;;;;4964352;28;20536;-72
2021/08/24 08:23:07;;;;;;;0.90;0.67;;;9.30;99.90;;;;;;4954205;28;20188;-74
2021/08/24 08:25:35;;;;;;;1.03;0.80;;;9.30;99.90;;;;;;4942631;28;20274;-71
2021/08/24 08:28:03;;;;;;;1.07;0.70;;;9.30;99.90;;;;;;4957548;29;20190;-69
2021/08/24 08:30:31;;;;;;;0.67;0.50;;;9.40;99.90;;;;;;4957952;29;20182;-71
2021/08/24 08:32:59;;;;;;;0.77;0.50;;;9.40;99.90;;;;;;4957084;29;20195;-70
2021/08/24 08:35:27;;;;;;;1.43;0.50;;;9.50;99.90;;;;;;4952161;29;20184;-68
2021/08/24 08:37:55;;;;;;;0.97;0.60;;;9.50;99.90;;;;;;4957961;29;20219;-76
2021/08/24 08:40:49;;;;;;;1.57;0.70;;;9.50;99.90;;;;;;4956760;28;20255;-66
2021/08/24 08:43:34;;;;;;;1.47;0.80;;;9.50;99.90;;;;;;4930973;29;20275;-65
2021/08/24 08:46:22;;;;;;;0.57;0.50;;;9.50;99.90;;;;;;4964962;28;20199;-64
2021/08/24 08:49:24;;;;;;;0.77;0.60;;;9.50;99.90;;;;;;4946116;29;20263;-74
2021/08/24 08:52:10;;;;;;;0.67;0.47;;;9.50;99.90;;;;;;4957890;29;20693;-72
2021/08/24 08:54:47;;;;;;;0.60;0.50;;;9.50;99.90;;;;;;4957364;29;20189;-73
2021/08/24 08:57:19;;;;;;;1.43;1.07;;;9.40;99.90;;;;;;4955216;29;20309;-69
2021/08/24 09:00:14;;;;;;;3.83;1.33;;;9.40;99.90;;;;;;4956918;29;20279;-62
2021/08/24 09:02:45;;;;;;;1.07;0.77;;;9.40;99.90;;;;;;4955273;28;20183;-70
2021/08/24 09:05:15;;;;;;;2.50;0.60;;;9.40;99.90;;;;;;4953100;28;20204;-68
2021/08/24 09:07:47;;;;;;;1.27;0.77;;;9.30;99.90;;;;;;4956923;29;20647;-72
2021/08/24 09:10:32;;;;;;;1.43;0.70;;;9.30;99.90;;;;;;4953452;29;20315;-62
2021/08/24 09:13:19;;;;;;;1.07;0.60;;;9.30;99.90;;;;;;4946472;28;20243;-63
2021/08/24 09:15:59;;;;;;;1.37;0.70;;;9.30;99.90;;;;;;4976290;28;20696;-63
2021/08/24 09:18:42;;;;;;;1.37;0.80;;;9.20;99.90;;;;;;4966815;28;20225;-65
2021/08/24 09:21:14;;;;;;;0.80;0.57;;;9.20;99.90;;;;;;4973514;28;20190;-62
2021/08/24 09:23:41;;;;;;;1.57;0.70;;;9.20;99.90;;;;;;4967647;28;20203;-68
2021/08/24 09:26:23;;;;;;;2.37;0.83;;;9.20;99.90;;;;;;4975190;28;20187;-67
2021/08/24 09:28:54;;;;;;;1.53;0.77;;;9.10;99.90;;;;;;4949476;28;20194;-70
2021/08/24 09:31:24;;;;;;;0.67;0.60;;;9.00;99.90;;;;;;4968879;28;20186;-66
2021/08/24 09:33:52;;;;;;;1.10;0.60;;;9.00;99.90;;;;;;4976321;28;20182;-66
2021/08/24 09:36:19;;;;;;;0.60;0.60;;;9.10;99.90;;;;;;4970963;28;20191;-66
2021/08/24 09:38:54;;;;;;;1.27;0.43;;;9.10;99.90;;;;;;4953564;28;20270;-66
2021/08/24 09:41:28;;;;;;;1.70;0.60;;;9.10;99.90;;;;;;4965339;28;20309;-64
2021/08/24 09:44:18;;;;;;;2.20;0.80;;;9.10;99.90;;;;;;4956930;28;20179;-71
2021/08/24 09:46:46;;;;;;;2.43;0.70;;;9.10;99.90;;;;;;4954247;28;20180;-70
2021/08/24 09:49:22;;;;;;;0.60;0.60;;;9.00;99.90;;;;;;4947369;28;20186;-68
2021/08/24 09:52:00;;;;;;;3.13;0.90;;;9.00;99.90;;;;;;4949901;28;20575;-75
2021/08/24 09:54:30;;;;;;;2.20;0.63;;;9.00;99.90;;;;;;4944882;29;20191;-65
2021/08/24 09:57:02;;;;;;;2.30;0.50;;;9.10;99.90;;;;;;4946286;28;20574;-67
2021/08/24 09:59:38;;;;;;;1.03;0.60;;;9.10;99.90;;;;;;4955726;28;20183;-65
2021/08/24 10:02:26;;;;;;;0.40;0.40;;;9.10;99.90;;;;;;4954284;28;20187;-68
2021/08/24 10:04:54;;;;;;;0.60;0.50;;;9.10;99.90;;;;;;4944481;29;20274;-72
2021/08/24 10:07:44;;;;;;;2.17;0.60;;;9.10;99.90;;;;;;4948181;28;20192;-71
2021/08/24 10:10:26;;;;;;;1.13;0.50;;;9.10;99.90;;;;;;4942184;28;20246;-71
2021/08/24 10:12:55;;;;;;;1.03;0.57;;;9.10;99.90;;;;;;4956283;29;20363;-67
2021/08/24 10:15:37;;;;;;;1.23;0.60;;;9.10;99.90;;;;;;4953970;29;20201;-65
2021/08/24 10:18:21;;;;;;;1.07;0.50;;;9.10;99.90;;;;;;4955049;29;20216;-71
2021/08/24 10:21:33;;;;;;;0.37;0.37;;;9.10;99.90;;;;;;4956251;29;20619;-64
2021/08/24 10:24:03;;;;;;;0.73;0.50;;;9.10;99.90;;;;;;4939050;29;20190;-67
2021/08/24 10:26:33;;;;;;;0.50;0.50;;;9.00;99.90;;;;;;4950479;28;20246;-67
2021/08/24 10:29:11;;;;;;;0.90;0.70;;;9.00;99.90;;;;;;4943264;29;20234;-69
2021/08/24 10:31:58;;;;;;;1.33;0.50;;;9.00;99.90;;;;;;4951223;29;20205;-61
2021/08/24 10:34:35;;;;;;;1.37;0.40;;;8.90;99.90;;;;;;4949803;28;20860;-70
2021/08/24 10:37:24;;;;;;;3.03;0.50;;;8.90;99.90;;;;;;4953619;28;20351;-66
2021/08/24 10:40:14;;;;;;;0.80;0.30;;;8.80;99.90;;;;;;4953835;28;20225;-68
2021/08/24 10:42:59;;;;;;;2.43;0.70;;;8.80;99.90;;;;;;4949564;29;20186;-67
2021/08/24 10:45:30;;;;;;;1.30;0.60;;;8.80;99.90;;;;;;4955229;28;20172;-64
2021/08/24 10:48:00;;;;;;;0.87;0.50;;;8.70;99.90;;;;;;4938445;29;20207;-63
2021/08/24 10:50:48;;;;;;;0.57;0.50;;;8.70;99.90;;;;;;4955538;29;20175;-73
2021/08/24 10:53:33;;;;;;;1.70;0.60;;;8.70;99.90;;;;;;4934560;29;20195;-64
2021/08/24 10:56:31;;;;;;;3.23;0.60;;;8.70;99.90;;;;;;4944032;28;20194;-71
2021/08/24 10:59:07;;;;;;;1.03;0.60;;;8.70;99.90;;;;;;4938172;29;20192;-61
2021/08/24 11:01:58;;;;;;;0.70;0.50;;;8.60;99.90;;;;;;4945714;29;20199;-71
2021/08/24 11:04:29;;;;;;;0.63;0.63;;;8.60;99.90;;;;;;4950695;28;20219;-68
2021/08/24 11:07:26;;;;;;;0.87;0.30;;;8.60;99.90;;;;;;4949329;29;20251;-71
2021/08/24 11:10:11;;;;;;;2.37;0.60;;;8.60;99.90;;;;;;4941680;28;20265;-61
2021/08/24 11:12:45;;;;;;;0.80;0.40;;;8.60;99.90;;;;;;4941420;29;20184;-68
2021/08/24 11:15:50;;;;;;;0.93;0.40;;;8.60;99.90;;;;;;4940302;28;20242;-61
2021/08/24 11:18:41;;;;;;;1.33;0.40;;;8.60;99.90;;;;;;4947163;28;20230;-64
2021/08/24 11:21:21;;;;;;;0.70;0.40;;;8.60;99.90;;;;;;4951515;29;20183;-63
2021/08/24 11:24:17;;;;;;;1.40;0.57;;;8.60;99.90;;;;;;4954790;29;20222;-62
2021/08/24 11:27:03;;;;;;;2.23;0.63;;;8.60;99.90;;;;;;4920138;29;20626;-70
2021/08/24 11:29:54;;;;;;;0.30;0.30;;;8.50;99.90;;;;;;4929921;29;20691;-71
2021/08/24 11:32:43;;;;;;;1.50;0.30;;;8.50;99.90;;;;;;4952482;29;20234;-72
2021/08/24 11:35:17;;;;;;;0.60;0.50;;;8.40;99.90;;;;;;4955437;28;20176;-61
2021/08/24 11:37:57;;;;;;;0.80;0.43;;;8.40;99.90;;;;;;4954824;29;20218;-68
2021/08/24 11:40:44;;;;;;;0.40;0.40;;;8.40;99.90;;;;;;4958019;28;20219;-72
2021/08/24 11:43:19;;;;;;;0.83;0.50;;;8.40;99.90;;;;;;4936071;29;20184;-72
2021/08/24 11:45:54;;;;;;;1.27;0.93;;;8.40;99.90;;;;;;4954128;28;20183;-71
2021/08/24 11:48:33;;;;;;;1.13;0.70;;;8.30;99.90;;;;;;4942855;28;20270;-75
2021/08/24 11:51:16;;;;;;;0.80;0.50;;;8.40;99.90;;;;;;4953509;28;20183;-70
2021/08/24 11:54:30;;;;;;;2.40;0.53;;;8.30;99.90;;;;;;4944956;28;20187;-72
2021/08/24 11:57:08;;;;;;;1.57;0.50;;;8.30;99.90;;;;;;4893119;29;20669;-64
2021/08/24 11:59:54;;;;;;;0.77;0.30;;;8.30;99.90;;;;;;4895086;29;20220;-68
2021/08/24 12:02:27;;;;;;;73.17;67.83;;;8.20;99.90;;;;;;4930296;28;20217;-69
2021/08/24 12:04:55;;;;;;;1.33;0.50;;;8.30;99.90;;;;;;4943234;28;20188;-73
2021/08/24 12:07:43;;;;;;;0.90;0.40;;;8.20;99.90;;;;;;4952195;28;20183;-62
2021/08/24 12:10:54;;;;;;;3.00;0.90;;;8.30;99.90;;;;;;4944505;28;20266;-61
2021/08/24 12:13:37;;;;;;;2.07;0.73;;;8.20;99.90;;;;;;4943092;28;20192;-73
2021/08/24 12:16:23;;;;;;;1.10;0.40;;;8.20;99.90;;;;;;4943383;28;20187;-63
2021/08/24 12:18:54;;;;;;;0.77;0.43;;;8.30;99.90;;;;;;4945786;28;20223;-70
2021/08/24 12:21:30;;;;;;;3.43;0.70;;;8.20;99.90;;;;;;4954412;28;20171;-62
2021/08/24 12:24:18;;;;;;;1.70;0.43;;;8.20;99.90;;;;;;4950994;28;20183;-74
2021/08/24 12:26:45;;;;;;;0.87;0.60;;;8.20;99.90;;;;;;4946319;28;20259;-73
2021/08/24 12:29:49;;;;;;;0.73;0.50;;;8.20;99.90;;;;;;4939958;28;20207;-72
2021/08/24 12:32:25;;;;;;;1.33;0.40;;;8.20;99.90;;;;;;4940076;28;20185;-72
2021/08/24 12:35:05;;;;;;;0.87;0.50;;;8.20;99.90;;;;;;4954382;28;20239;-68
2021/08/24 12:37:32;;;;;;;0.67;0.40;;;8.20;99.90;;;;;;4941569;28;20219;-69
2021/08/24 12:40:25;;;;;;;1.53;0.50;;;8.20;99.90;;;;;;4953921;28;20219;-72
2021/08/24 12:43:02;;;;;;;1.50;0.57;;;8.10;99.90;;;;;;4945508;28;20202;-72
2021/08/24 12:45:35;;;;;;;1.37;0.70;;;8.10;99.90;;;;;;4953795;28;20196;-70
2021/08/24 12:48:17;;;;;;;1.13;0.60;;;8.10;99.90;;;;;;4951775;29;20218;-74
2021/08/24 12:51:02;;;;;;;1.50;0.50;;;8.20;99.90;;;;;;4954126;29;20179;-71
2021/08/24 12:53:29;;;;;;;2.63;0.70;;;8.20;99.90;;;;;;4953847;28;20303;-74
2021/08/24 12:56:04;;;;;;;1.23;0.50;;;8.30;99.90;;;;;;4946903;28;20646;-70
2021/08/24 12:58:47;;;;;;;2.10;0.50;;;8.20;99.90;;;;;;4956005;28;20210;-64
2021/08/24 13:01:23;;;;;;;0.73;0.57;;;8.20;99.90;;;;;;4952554;28;20274;-66
2021/08/24 13:03:54;;;;;;;2.27;0.70;;;8.20;99.90;;;;;;4957610;29;20194;-65
2021/08/24 13:06:27;;;;;;;0.77;0.43;;;8.30;99.90;;;;;;4956169;29;20175;-70
2021/08/24 13:09:23;;;;;;;1.20;0.60;;;8.20;99.90;;;;;;4957198;29;20546;-64
2021/08/24 13:12:33;;;;;;;1.80;0.57;;;8.20;99.90;;;;;;4956467;28;20182;-69
2021/08/24 13:15:03;;;;;;;1.10;0.53;;;8.20;99.90;;;;;;4951498;28;20184;-64
2021/08/24 13:17:45;;;;;;;1.50;0.70;;;8.20;99.90;;;;;;4947587;28;20280;-71
2021/08/24 13:20:27;;;;;;;0.93;0.63;;;8.30;99.90;;;;;;4957378;29;20638;-62
2021/08/24 13:23:08;;;;;;;2.43;0.73;;;8.30;99.90;;;;;;4955070;28;20191;-67
2021/08/24 13:25:57;;;;;;;1.20;0.80;;;8.30;99.90;;;;;;4957270;29;20585;-64
2021/08/24 13:28:28;;;;;;;1.37;0.60;;;8.30;99.90;;;;;;4957059;29;20218;-65
2021/08/24 13:31:07;;;;;;;1.50;0.50;;;8.40;99.90;;;;;;4956716;28;20175;-69
2021/08/24 13:33:42;;;;;;;2.30;0.73;;;8.40;99.90;;;;;;4957028;28;20234;-68
2021/08/24 13:36:18;;;;;;;0.93;0.63;;;8.30;99.90;;;;;;4951511;29;20224;-63
2021/08/24 13:38:52;;;;;;;3.13;0.70;;;8.40;99.90;;;;;;4949879;29;20328;-73
2021/08/24 13:41:31;;;;;;;1.73;0.60;;;8.40;99.90;;;;;;4955845;28;20226;-68
2021/08/24 13:44:01;;;;;;;1.07;0.60;;;8.40;99.90;;;;;;4956748;28;20634;-66
2021/08/24 13:46:34;;;;;;;1.37;0.60;;;8.40;99.90;;;;;;4956687;28;20228;-70
2021/08/24 13:49:04;;;;;;;1.73;0.63;;;8.40;99.90;;;;;;4955882;28;20172;-70
2021/08/24 13:51:50;;;;;;;0.93;0.70;;;8.50;99.90;;;;;;4956932;28;20190;-68